sensor_id;sensor_type;location;lat;lon;timestamp;pressure;altitude;pressure_sealevel;temperature;humidity
55066;BME280;40964;42.114;24.220;2022-11-03T00:01:34;98191.75;;;15.32;45.08
55066;BME280;40964;42.114;24.220;2022-11-03T00:04:03;98196.97;;;15.44;44.22
55066;BME280;40964;42.114;24.220;2022-11-03T00:06:29;98198.44;;;15.52;44.77
55066;BME280;40964;42.114;24.220;2022-11-03T00:08:57;98197.75;;;15.56;44.63
55066;BME280;40964;42.114;24.220;2022-11-03T00:11:23;98190.50;;;15.52;45.07
55066;BME280;40964;42.114;24.220;2022-11-03T00:13:49;98198.31;;;15.58;45.10
55066;BME280;40964;42.114;24.220;2022-11-03T00:16:14;98204.53;;;15.64;44.17
55066;BME280;40964;42.114;24.220;2022-11-03T00:18:40;98198.38;;;15.75;43.63
55066;BME280;40964;42.114;24.220;2022-11-03T00:21:11;98193.72;;;15.82;43.06
55066;BME280;40964;42.114;24.220;2022-11-03T00:23:39;98202.09;;;15.91;43.28
55066;BME280;40964;42.114;24.220;2022-11-03T00:26:13;98187.03;;;15.97;42.87
55066;BME280;40964;42.114;24.220;2022-11-03T00:28:43;98206.34;;;16.09;42.82
55066;BME280;40964;42.114;24.220;2022-11-03T00:31:17;98205.31;;;16.10;42.25
55066;BME280;40964;42.114;24.220;2022-11-03T00:33:43;98203.28;;;16.17;42.23
55066;BME280;40964;42.114;24.220;2022-11-03T00:36:15;98204.66;;;16.20;41.97
55066;BME280;40964;42.114;24.220;2022-11-03T00:38:44;98194.44;;;16.28;41.67
55066;BME280;40964;42.114;24.220;2022-11-03T00:41:10;98203.50;;;16.32;41.85
55066;BME280;40964;42.114;24.220;2022-11-03T00:43:36;98205.75;;;16.40;41.58
55066;BME280;40964;42.114;24.220;2022-11-03T00:46:03;98197.88;;;16.45;41.75
55066;BME280;40964;42.114;24.220;2022-11-03T00:48:30;98195.53;;;16.49;41.82
55066;BME280;40964;42.114;24.220;2022-11-03T00:53:40;98189.03;;;16.62;41.21
55066;BME280;40964;42.114;24.220;2022-11-03T00:56:09;98193.63;;;16.66;41.04
55066;BME280;40964;42.114;24.220;2022-11-03T00:58:34;98181.66;;;16.64;41.14
55066;BME280;40964;42.114;24.220;2022-11-03T01:01:06;98194.84;;;16.76;41.52
55066;BME280;40964;42.114;24.220;2022-11-03T01:03:34;98189.28;;;16.77;40.99
55066;BME280;40964;42.114;24.220;2022-11-03T01:06:00;98192.81;;;16.83;40.74
55066;BME280;40964;42.114;24.220;2022-11-03T01:08:45;98183.34;;;16.70;41.01
55066;BME280;40964;42.114;24.220;2022-11-03T01:11:16;98182.38;;;16.59;41.24
55066;BME280;40964;42.114;24.220;2022-11-03T01:14:00;98185.53;;;16.56;41.68
55066;BME280;40964;42.114;24.220;2022-11-03T01:16:26;98183.72;;;16.62;41.78
55066;BME280;40964;42.114;24.220;2022-11-03T01:18:51;98181.81;;;16.74;41.28
55066;BME280;40964;42.114;24.220;2022-11-03T01:21:17;98186.13;;;16.80;41.19
55066;BME280;40964;42.114;24.220;2022-11-03T01:23:43;98191.00;;;16.88;40.83
55066;BME280;40964;42.114;24.220;2022-11-03T01:26:10;98189.53;;;16.97;40.51
55066;BME280;40964;42.114;24.220;2022-11-03T01:28:38;98192.34;;;17.08;40.44
55066;BME280;40964;42.114;24.220;2022-11-03T01:31:09;98195.00;;;17.08;41.13
55066;BME280;40964;42.114;24.220;2022-11-03T01:33:35;98195.91;;;16.96;41.32
55066;BME280;40964;42.114;24.220;2022-11-03T01:36:00;98180.63;;;16.87;42.18
55066;BME280;40964;42.114;24.220;2022-11-03T01:38:27;98188.31;;;16.83;42.08
55066;BME280;40964;42.114;24.220;2022-11-03T01:40:55;98197.59;;;16.81;41.99
55066;BME280;40964;42.114;24.220;2022-11-03T01:43:22;98177.81;;;16.71;42.40
55066;BME280;40964;42.114;24.220;2022-11-03T01:48:44;98198.69;;;16.68;42.35
55066;BME280;40964;42.114;24.220;2022-11-03T01:51:14;98188.06;;;16.68;42.05
55066;BME280;40964;42.114;24.220;2022-11-03T01:53:44;98198.00;;;16.56;42.48
55066;BME280;40964;42.114;24.220;2022-11-03T01:56:12;98200.66;;;16.56;42.41
55066;BME280;40964;42.114;24.220;2022-11-03T01:58:41;98207.44;;;16.46;42.52
55066;BME280;40964;42.114;24.220;2022-11-03T02:01:09;98202.69;;;16.49;42.68
55066;BME280;40964;42.114;24.220;2022-11-03T02:03:39;98210.66;;;16.49;42.19
55066;BME280;40964;42.114;24.220;2022-11-03T02:06:07;98206.31;;;16.42;41.83
55066;BME280;40964;42.114;24.220;2022-11-03T02:11:32;98216.88;;;16.37;42.31
55066;BME280;40964;42.114;24.220;2022-11-03T02:14:16;98209.94;;;16.36;42.46
55066;BME280;40964;42.114;24.220;2022-11-03T02:16:46;98216.22;;;16.30;43.14
55066;BME280;40964;42.114;24.220;2022-11-03T02:27:38;98200.69;;;16.22;43.98
55066;BME280;40964;42.114;24.220;2022-11-03T02:30:06;98209.72;;;16.21;44.70
55066;BME280;40964;42.114;24.220;2022-11-03T02:32:50;98205.91;;;16.17;45.02
55066;BME280;40964;42.114;24.220;2022-11-03T02:37:47;98211.06;;;16.07;43.38
55066;BME280;40964;42.114;24.220;2022-11-03T02:40:18;98209.97;;;16.03;43.17
55066;BME280;40964;42.114;24.220;2022-11-03T02:42:47;98173.06;;;15.84;43.68
55066;BME280;40964;42.114;24.220;2022-11-03T02:45:18;98210.50;;;16.05;43.57
55066;BME280;40964;42.114;24.220;2022-11-03T02:47:46;98211.97;;;15.96;43.94
55066;BME280;40964;42.114;24.220;2022-11-03T02:50:13;98218.81;;;15.92;44.82
55066;BME280;40964;42.114;24.220;2022-11-03T02:52:41;98215.66;;;15.95;44.61
55066;BME280;40964;42.114;24.220;2022-11-03T02:55:39;98211.97;;;15.96;43.86
55066;BME280;40964;42.114;24.220;2022-11-03T02:58:34;98208.09;;;15.86;44.01
55066;BME280;40964;42.114;24.220;2022-11-03T03:01:17;98219.25;;;15.88;45.02
55066;BME280;40964;42.114;24.220;2022-11-03T03:06:23;98225.41;;;15.60;44.90
55066;BME280;40964;42.114;24.220;2022-11-03T03:08:53;98225.41;;;15.60;44.71
55066;BME280;40964;42.114;24.220;2022-11-03T03:11:19;98215.63;;;15.49;45.75
55066;BME280;40964;42.114;24.220;2022-11-03T03:14:10;98229.47;;;15.51;45.59
55066;BME280;40964;42.114;24.220;2022-11-03T03:16:52;98211.75;;;15.40;46.55
55066;BME280;40964;42.114;24.220;2022-11-03T03:19:43;98223.84;;;15.48;46.47
55066;BME280;40964;42.114;24.220;2022-11-03T03:22:30;98217.00;;;15.52;45.92
55066;BME280;40964;42.114;24.220;2022-11-03T03:25:13;98230.50;;;15.50;45.47
55066;BME280;40964;42.114;24.220;2022-11-03T03:27:45;98233.63;;;15.47;45.95
55066;BME280;40964;42.114;24.220;2022-11-03T03:30:12;98223.16;;;15.41;46.85
55066;BME280;40964;42.114;24.220;2022-11-03T03:32:42;98219.59;;;15.47;46.84
55066;BME280;40964;42.114;24.220;2022-11-03T03:35:11;98222.44;;;15.45;47.28
55066;BME280;40964;42.114;24.220;2022-11-03T03:37:40;98230.31;;;15.40;47.39
55066;BME280;40964;42.114;24.220;2022-11-03T03:40:09;98227.09;;;15.38;46.87
55066;BME280;40964;42.114;24.220;2022-11-03T03:42:37;98233.22;;;15.39;46.29
55066;BME280;40964;42.114;24.220;2022-11-03T03:45:05;98231.25;;;15.34;46.96
55066;BME280;40964;42.114;24.220;2022-11-03T03:47:33;98225.50;;;15.37;47.07
55066;BME280;40964;42.114;24.220;2022-11-03T03:50:00;98225.81;;;15.41;46.80
55066;BME280;40964;42.114;24.220;2022-11-03T03:52:26;98223.97;;;15.41;46.54
55066;BME280;40964;42.114;24.220;2022-11-03T03:54:52;98223.50;;;15.44;46.75
55066;BME280;40964;42.114;24.220;2022-11-03T03:57:22;98221.94;;;15.31;47.64
55066;BME280;40964;42.114;24.220;2022-11-03T03:59:48;98212.44;;;15.19;48.02
55066;BME280;40964;42.114;24.220;2022-11-03T04:02:13;98222.06;;;15.25;46.81
55066;BME280;40964;42.114;24.220;2022-11-03T04:04:39;98219.97;;;15.27;46.88
55066;BME280;40964;42.114;24.220;2022-11-03T04:07:05;98214.22;;;15.30;47.36
55066;BME280;40964;42.114;24.220;2022-11-03T04:09:49;98209.59;;;15.37;46.93
55066;BME280;40964;42.114;24.220;2022-11-03T04:12:15;98219.22;;;15.43;46.12
55066;BME280;40964;42.114;24.220;2022-11-03T04:14:59;98218.44;;;15.43;47.28
55066;BME280;40964;42.114;24.220;2022-11-03T04:17:45;98220.22;;;15.25;48.04
55066;BME280;40964;42.114;24.220;2022-11-03T04:20:29;98222.53;;;15.22;48.19
55066;BME280;40964;42.114;24.220;2022-11-03T04:23:13;98215.16;;;15.24;48.35
55066;BME280;40964;42.114;24.220;2022-11-03T04:25:39;98213.22;;;15.19;48.94
55066;BME280;40964;42.114;24.220;2022-11-03T04:28:13;98222.34;;;15.12;47.42
55066;BME280;40964;42.114;24.220;2022-11-03T04:30:39;98218.84;;;15.23;46.91
55066;BME280;40964;42.114;24.220;2022-11-03T04:33:19;98228.41;;;15.24;47.53
55066;BME280;40964;42.114;24.220;2022-11-03T04:35:46;98221.75;;;15.21;47.84
55066;BME280;40964;42.114;24.220;2022-11-03T04:40:44;98215.97;;;15.24;46.40
55066;BME280;40964;42.114;24.220;2022-11-03T04:43:14;98230.13;;;15.30;46.87
55066;BME280;40964;42.114;24.220;2022-11-03T04:45:43;98236.00;;;15.32;47.49
55066;BME280;40964;42.114;24.220;2022-11-03T04:48:23;98225.63;;;15.30;47.01
55066;BME280;40964;42.114;24.220;2022-11-03T04:50:51;98235.06;;;15.38;46.91
55066;BME280;40964;42.114;24.220;2022-11-03T04:53:19;98237.34;;;15.34;47.08
55066;BME280;40964;42.114;24.220;2022-11-03T04:55:47;98231.59;;;15.38;47.48
55066;BME280;40964;42.114;24.220;2022-11-03T04:58:20;98235.84;;;15.39;48.01
55066;BME280;40964;42.114;24.220;2022-11-03T05:00:51;98233.53;;;15.42;47.45
55066;BME280;40964;42.114;24.220;2022-11-03T05:03:22;98230.56;;;15.39;46.83
55066;BME280;40964;42.114;24.220;2022-11-03T05:05:48;98231.06;;;15.52;46.83
55066;BME280;40964;42.114;24.220;2022-11-03T05:08:16;98246.72;;;15.54;46.69
55066;BME280;40964;42.114;24.220;2022-11-03T05:10:42;98251.16;;;15.48;47.50
55066;BME280;40964;42.114;24.220;2022-11-03T05:13:20;98246.09;;;15.47;48.14
55066;BME280;40964;42.114;24.220;2022-11-03T05:15:48;98249.06;;;15.50;47.95
55066;BME280;40964;42.114;24.220;2022-11-03T05:18:21;98254.59;;;15.49;47.41
55066;BME280;40964;42.114;24.220;2022-11-03T05:20:50;98237.41;;;15.51;47.60
55066;BME280;40964;42.114;24.220;2022-11-03T05:23:17;98250.41;;;15.53;46.85
55066;BME280;40964;42.114;24.220;2022-11-03T05:25:53;98252.63;;;15.56;46.49
55066;BME280;40964;42.114;24.220;2022-11-03T05:28:25;98255.94;;;15.63;46.72
55066;BME280;40964;42.114;24.220;2022-11-03T05:30:53;98261.59;;;15.67;46.57
55066;BME280;40964;42.114;24.220;2022-11-03T05:33:26;98265.97;;;15.73;46.36
55066;BME280;40964;42.114;24.220;2022-11-03T05:35:53;98272.88;;;15.74;46.49
55066;BME280;40964;42.114;24.220;2022-11-03T05:38:20;98270.28;;;15.79;46.11
55066;BME280;40964;42.114;24.220;2022-11-03T05:40:53;98276.41;;;15.79;46.49
55066;BME280;40964;42.114;24.220;2022-11-03T05:43:19;98274.41;;;15.86;45.65
55066;BME280;40964;42.114;24.220;2022-11-03T05:45:47;98278.22;;;15.91;45.84
55066;BME280;40964;42.114;24.220;2022-11-03T05:48:38;98282.47;;;15.92;45.76
55066;BME280;40964;42.114;24.220;2022-11-03T05:51:20;98285.34;;;15.90;45.78
55066;BME280;40964;42.114;24.220;2022-11-03T05:53:50;98280.28;;;15.88;46.61
55066;BME280;40964;42.114;24.220;2022-11-03T05:56:19;98285.03;;;15.86;46.42
55066;BME280;40964;42.114;24.220;2022-11-03T05:58:48;98292.97;;;15.86;46.67
55066;BME280;40964;42.114;24.220;2022-11-03T06:01:27;98283.66;;;15.84;46.98
55066;BME280;40964;42.114;24.220;2022-11-03T06:03:54;98286.63;;;15.87;46.71
55066;BME280;40964;42.114;24.220;2022-11-03T06:08:46;98291.66;;;16.01;46.34
55066;BME280;40964;42.114;24.220;2022-11-03T06:11:41;98291.00;;;16.10;46.07
55066;BME280;40964;42.114;24.220;2022-11-03T06:14:25;98294.41;;;16.23;46.47
55066;BME280;40964;42.114;24.220;2022-11-03T06:16:57;98295.59;;;16.32;45.34
55066;BME280;40964;42.114;24.220;2022-11-03T06:19:29;98295.75;;;16.42;45.33
55066;BME280;40964;42.114;24.220;2022-11-03T06:22:06;98295.75;;;16.59;45.70
55066;BME280;40964;42.114;24.220;2022-11-03T06:24:35;98291.91;;;16.66;45.04
55066;BME280;40964;42.114;24.220;2022-11-03T06:27:01;98302.19;;;16.80;45.00
55066;BME280;40964;42.114;24.220;2022-11-03T06:29:29;98302.69;;;16.93;44.05
55066;BME280;40964;42.114;24.220;2022-11-03T06:31:56;98303.69;;;17.09;44.76
55066;BME280;40964;42.114;24.220;2022-11-03T06:36:50;98301.59;;;17.33;44.46
55066;BME280;40964;42.114;24.220;2022-11-03T06:39:21;98300.91;;;17.43;44.18
55066;BME280;40964;42.114;24.220;2022-11-03T06:41:48;98300.53;;;17.56;44.01
55066;BME280;40964;42.114;24.220;2022-11-03T06:44:25;98306.53;;;17.68;43.45
55066;BME280;40964;42.114;24.220;2022-11-03T06:47:00;98306.97;;;17.82;44.53
55066;BME280;40964;42.114;24.220;2022-11-03T06:49:33;98314.56;;;17.95;43.05
55066;BME280;40964;42.114;24.220;2022-11-03T06:52:17;98306.91;;;18.04;41.60
55066;BME280;40964;42.114;24.220;2022-11-03T06:54:47;98309.53;;;18.26;40.78
55066;BME280;40964;42.114;24.220;2022-11-03T06:57:17;98309.63;;;18.36;43.96
55066;BME280;40964;42.114;24.220;2022-11-03T06:59:42;98312.47;;;18.29;44.85
55066;BME280;40964;42.114;24.220;2022-11-03T07:02:36;98317.25;;;18.27;45.25
55066;BME280;40964;42.114;24.220;2022-11-03T07:05:24;98315.13;;;18.29;44.56
55066;BME280;40964;42.114;24.220;2022-11-03T07:07:54;98297.63;;;18.33;43.28
55066;BME280;40964;42.114;24.220;2022-11-03T07:10:22;98313.41;;;18.45;43.71
55066;BME280;40964;42.114;24.220;2022-11-03T07:12:49;98320.13;;;18.53;42.82
55066;BME280;40964;42.114;24.220;2022-11-03T07:15:41;98313.59;;;18.65;42.50
55066;BME280;40964;42.114;24.220;2022-11-03T07:18:24;98316.31;;;18.76;42.49
55066;BME280;40964;42.114;24.220;2022-11-03T07:20:53;98318.50;;;18.79;41.64
55066;BME280;40964;42.114;24.220;2022-11-03T07:23:22;98323.31;;;18.87;40.41
55066;BME280;40964;42.114;24.220;2022-11-03T07:25:53;98319.94;;;18.96;40.14
55066;BME280;40964;42.114;24.220;2022-11-03T07:28:30;98319.75;;;19.08;39.75
55066;BME280;40964;42.114;24.220;2022-11-03T07:31:00;98322.19;;;19.20;38.58
55066;BME280;40964;42.114;24.220;2022-11-03T07:33:30;98308.06;;;19.19;38.67
55066;BME280;40964;42.114;24.220;2022-11-03T07:35:57;98326.31;;;19.43;37.77
55066;BME280;40964;42.114;24.220;2022-11-03T07:38:24;98319.91;;;19.49;37.54
55066;BME280;40964;42.114;24.220;2022-11-03T07:40:51;98296.41;;;19.41;37.77
55066;BME280;40964;42.114;24.220;2022-11-03T07:45:54;98316.81;;;19.62;37.48
55066;BME280;40964;42.114;24.220;2022-11-03T07:50:48;98307.50;;;19.85;37.34
55066;BME280;40964;42.114;24.220;2022-11-03T07:53:35;98309.97;;;20.02;38.15
55066;BME280;40964;42.114;24.220;2022-11-03T07:56:35;98306.50;;;20.06;37.05
55066;BME280;40964;42.114;24.220;2022-11-03T08:01:30;98311.06;;;20.26;37.25
55066;BME280;40964;42.114;24.220;2022-11-03T08:04:01;98305.44;;;20.38;36.60
55066;BME280;40964;42.114;24.220;2022-11-03T08:06:29;98303.06;;;20.41;36.30
55066;BME280;40964;42.114;24.220;2022-11-03T08:08:54;98299.88;;;20.50;36.96
55066;BME280;40964;42.114;24.220;2022-11-03T08:11:20;98300.66;;;20.60;36.17
55066;BME280;40964;42.114;24.220;2022-11-03T08:13:47;98307.59;;;20.72;36.54
55066;BME280;40964;42.114;24.220;2022-11-03T08:16:13;98290.47;;;20.83;35.38
55066;BME280;40964;42.114;24.220;2022-11-03T08:18:38;98301.69;;;20.95;35.82
55066;BME280;40964;42.114;24.220;2022-11-03T08:21:04;98301.94;;;20.98;34.99
55066;BME280;40964;42.114;24.220;2022-11-03T08:23:29;98305.13;;;21.01;34.85
55066;BME280;40964;42.114;24.220;2022-11-03T08:25:55;98298.72;;;21.02;35.06
55066;BME280;40964;42.114;24.220;2022-11-03T08:28:21;98302.94;;;21.23;34.76
55066;BME280;40964;42.114;24.220;2022-11-03T08:30:47;98301.06;;;21.34;34.83
55066;BME280;40964;42.114;24.220;2022-11-03T08:33:12;98306.88;;;21.46;34.58
55066;BME280;40964;42.114;24.220;2022-11-03T08:35:38;98301.25;;;21.47;34.27
55066;BME280;40964;42.114;24.220;2022-11-03T08:38:03;98299.31;;;21.63;35.15
55066;BME280;40964;42.114;24.220;2022-11-03T08:40:29;98301.69;;;21.75;34.02
55066;BME280;40964;42.114;24.220;2022-11-03T08:42:54;98308.56;;;21.86;34.67
55066;BME280;40964;42.114;24.220;2022-11-03T08:45:20;98303.97;;;21.92;33.90
55066;BME280;40964;42.114;24.220;2022-11-03T08:47:45;98305.28;;;21.99;34.41
55066;BME280;40964;42.114;24.220;2022-11-03T08:50:10;98306.03;;;22.05;34.07
55066;BME280;40964;42.114;24.220;2022-11-03T08:52:36;98299.34;;;22.13;33.54
55066;BME280;40964;42.114;24.220;2022-11-03T08:55:03;98296.06;;;22.21;33.64
55066;BME280;40964;42.114;24.220;2022-11-03T08:57:28;98292.78;;;22.29;33.72
55066;BME280;40964;42.114;24.220;2022-11-03T08:59:54;98299.41;;;22.36;33.80
55066;BME280;40964;42.114;24.220;2022-11-03T09:02:20;98303.69;;;22.37;32.88
55066;BME280;40964;42.114;24.220;2022-11-03T09:04:46;98297.22;;;22.44;33.06
55066;BME280;40964;42.114;24.220;2022-11-03T09:07:11;98291.47;;;22.55;33.60
55066;BME280;40964;42.114;24.220;2022-11-03T09:09:37;98293.09;;;22.56;33.08
55066;BME280;40964;42.114;24.220;2022-11-03T09:12:03;98282.28;;;22.66;33.08
55066;BME280;40964;42.114;24.220;2022-11-03T09:14:28;98266.03;;;22.53;33.56
55066;BME280;40964;42.114;24.220;2022-11-03T09:16:54;98281.41;;;22.71;33.53
55066;BME280;40964;42.114;24.220;2022-11-03T09:19:19;98283.72;;;22.83;33.10
55066;BME280;40964;42.114;24.220;2022-11-03T09:21:45;98276.94;;;22.90;34.39
55066;BME280;40964;42.114;24.220;2022-11-03T09:24:10;98277.00;;;22.85;32.55
55066;BME280;40964;42.114;24.220;2022-11-03T09:26:35;98271.16;;;22.78;33.88
55066;BME280;40964;42.114;24.220;2022-11-03T09:29:02;98265.75;;;22.83;33.02
55066;BME280;40964;42.114;24.220;2022-11-03T09:31:28;98269.97;;;22.89;33.41
55066;BME280;40964;42.114;24.220;2022-11-03T09:33:54;98269.66;;;22.96;34.24
55066;BME280;40964;42.114;24.220;2022-11-03T09:36:20;98267.91;;;23.10;33.39
55066;BME280;40964;42.114;24.220;2022-11-03T09:41:11;98243.75;;;23.10;33.31
55066;BME280;40964;42.114;24.220;2022-11-03T09:43:45;98261.19;;;23.08;34.54
55066;BME280;40964;42.114;24.220;2022-11-03T09:46:12;98254.75;;;22.85;34.73
55066;BME280;40964;42.114;24.220;2022-11-03T09:48:38;98269.94;;;22.94;34.67
55066;BME280;40964;42.114;24.220;2022-11-03T09:51:04;98265.50;;;22.85;34.47
55066;BME280;40964;42.114;24.220;2022-11-03T09:53:30;98261.31;;;22.69;35.02
55066;BME280;40964;42.114;24.220;2022-11-03T09:55:56;98266.78;;;22.58;35.08
55066;BME280;40964;42.114;24.220;2022-11-03T09:58:22;98254.31;;;22.73;34.65
55066;BME280;40964;42.114;24.220;2022-11-03T10:00:47;98250.56;;;22.74;34.49
55066;BME280;40964;42.114;24.220;2022-11-03T10:03:15;98249.50;;;22.70;35.35
55066;BME280;40964;42.114;24.220;2022-11-03T10:05:45;98243.56;;;22.73;34.55
55066;BME280;40964;42.114;24.220;2022-11-03T10:08:28;98247.06;;;22.73;35.00
55066;BME280;40964;42.114;24.220;2022-11-03T10:10:55;98252.88;;;22.85;34.62
55066;BME280;40964;42.114;24.220;2022-11-03T10:13:35;98251.28;;;22.84;34.28
55066;BME280;40964;42.114;24.220;2022-11-03T10:16:04;98245.53;;;22.67;34.36
55066;BME280;40964;42.114;24.220;2022-11-03T10:18:31;98243.81;;;22.76;35.07
55066;BME280;40964;42.114;24.220;2022-11-03T10:21:03;98230.63;;;22.80;34.52
55066;BME280;40964;42.114;24.220;2022-11-03T10:23:29;98245.91;;;22.84;34.03
55066;BME280;40964;42.114;24.220;2022-11-03T10:26:07;98236.50;;;22.87;35.09
55066;BME280;40964;42.114;24.220;2022-11-03T10:28:33;98223.47;;;22.99;34.73
55066;BME280;40964;42.114;24.220;2022-11-03T10:31:01;98218.06;;;23.04;34.94
55066;BME280;40964;42.114;24.220;2022-11-03T10:36:26;98214.31;;;23.24;34.00
55066;BME280;40964;42.114;24.220;2022-11-03T10:38:52;98203.06;;;23.22;33.86
55066;BME280;40964;42.114;24.220;2022-11-03T10:41:26;98215.56;;;23.32;33.47
55066;BME280;40964;42.114;24.220;2022-11-03T10:44:05;98210.56;;;23.44;33.24
55066;BME280;40964;42.114;24.220;2022-11-03T10:47:03;98196.19;;;23.35;33.45
55066;BME280;40964;42.114;24.220;2022-11-03T10:49:33;98205.59;;;23.13;33.70
55066;BME280;40964;42.114;24.220;2022-11-03T10:54:46;98197.13;;;23.25;34.17
55066;BME280;40964;42.114;24.220;2022-11-03T10:57:12;98193.50;;;23.35;33.50
55066;BME280;40964;42.114;24.220;2022-11-03T10:59:38;98190.81;;;23.35;34.81
55066;BME280;40964;42.114;24.220;2022-11-03T11:02:14;98184.59;;;23.58;34.81
55066;BME280;40964;42.114;24.220;2022-11-03T11:04:41;98164.50;;;23.74;32.91
55066;BME280;40964;42.114;24.220;2022-11-03T11:07:33;98167.09;;;23.79;32.40
55066;BME280;40964;42.114;24.220;2022-11-03T11:12:35;98169.13;;;23.31;33.27
55066;BME280;40964;42.114;24.220;2022-11-03T11:15:02;98167.59;;;23.25;33.18
55066;BME280;40964;42.114;24.220;2022-11-03T11:17:45;98157.75;;;23.39;33.17
55066;BME280;40964;42.114;24.220;2022-11-03T11:22:49;98156.44;;;23.37;33.68
55066;BME280;40964;42.114;24.220;2022-11-03T11:25:17;98156.06;;;23.25;33.33
55066;BME280;40964;42.114;24.220;2022-11-03T11:27:46;98148.59;;;23.21;33.81
55066;BME280;40964;42.114;24.220;2022-11-03T11:37:54;98137.50;;;23.28;34.71
55066;BME280;40964;42.114;24.220;2022-11-03T11:48:40;98129.34;;;23.71;32.74
55066;BME280;40964;42.114;24.220;2022-11-03T11:51:08;98122.69;;;23.68;33.17
55066;BME280;40964;42.114;24.220;2022-11-03T11:53:39;98130.94;;;23.72;32.47
55066;BME280;40964;42.114;24.220;2022-11-03T11:56:09;98118.22;;;23.64;32.57
55066;BME280;40964;42.114;24.220;2022-11-03T12:03:58;98095.94;;;23.26;33.62
55066;BME280;40964;42.114;24.220;2022-11-03T12:06:36;98108.53;;;23.44;33.48
55066;BME280;40964;42.114;24.220;2022-11-03T12:11:47;98104.50;;;23.28;33.08
55066;BME280;40964;42.114;24.220;2022-11-03T12:14:40;98099.34;;;23.31;33.09
55066;BME280;40964;42.114;24.220;2022-11-03T12:19:50;98090.13;;;23.18;33.88
55066;BME280;40964;42.114;24.220;2022-11-03T12:24:50;98093.63;;;23.38;34.33
55066;BME280;40964;42.114;24.220;2022-11-03T12:27:19;98086.91;;;23.54;34.05
55066;BME280;40964;42.114;24.220;2022-11-03T12:29:45;98089.91;;;23.34;33.15
55066;BME280;40964;42.114;24.220;2022-11-03T12:32:10;98090.84;;;23.24;34.13
55066;BME280;40964;42.114;24.220;2022-11-03T12:34:36;98087.03;;;23.11;33.83
55066;BME280;40964;42.114;24.220;2022-11-03T12:37:01;98097.53;;;22.89;34.31
55066;BME280;40964;42.114;24.220;2022-11-03T12:39:27;98093.19;;;22.69;33.49
55066;BME280;40964;42.114;24.220;2022-11-03T12:41:52;98089.38;;;22.75;34.35
55066;BME280;40964;42.114;24.220;2022-11-03T12:44:18;98087.09;;;22.63;34.38
55066;BME280;40964;42.114;24.220;2022-11-03T12:46:43;98083.84;;;22.66;34.63
55066;BME280;40964;42.114;24.220;2022-11-03T12:49:08;98077.84;;;22.75;34.29
55066;BME280;40964;42.114;24.220;2022-11-03T12:51:34;98075.50;;;22.92;34.34
55066;BME280;40964;42.114;24.220;2022-11-03T12:53:59;98076.31;;;22.92;33.80
55066;BME280;40964;42.114;24.220;2022-11-03T12:56:25;98083.63;;;22.82;33.81
55066;BME280;40964;42.114;24.220;2022-11-03T12:58:50;98082.69;;;22.73;33.88
55066;BME280;40964;42.114;24.220;2022-11-03T13:01:16;98079.47;;;22.52;33.67
55066;BME280;40964;42.114;24.220;2022-11-03T13:03:42;98065.41;;;22.41;34.79
55066;BME280;40964;42.114;24.220;2022-11-03T13:06:08;98069.66;;;22.42;34.87
55066;BME280;40964;42.114;24.220;2022-11-03T13:08:38;98073.44;;;22.41;34.45
55066;BME280;40964;42.114;24.220;2022-11-03T13:11:04;98066.25;;;22.36;34.56
55066;BME280;40964;42.114;24.220;2022-11-03T13:13:50;98065.06;;;22.24;34.94
55066;BME280;40964;42.114;24.220;2022-11-03T13:16:15;98070.03;;;22.06;34.70
55066;BME280;40964;42.114;24.220;2022-11-03T13:18:41;98066.34;;;22.02;34.44
55066;BME280;40964;42.114;24.220;2022-11-03T13:21:06;98074.69;;;21.96;35.43
55066;BME280;40964;42.114;24.220;2022-11-03T13:23:32;98067.75;;;21.95;35.36
55066;BME280;40964;42.114;24.220;2022-11-03T13:25:57;98076.34;;;21.92;35.03
55066;BME280;40964;42.114;24.220;2022-11-03T13:28:24;98080.16;;;21.86;34.79
55066;BME280;40964;42.114;24.220;2022-11-03T13:30:49;98071.19;;;21.71;35.77
55066;BME280;40964;42.114;24.220;2022-11-03T13:33:15;98076.31;;;21.68;35.19
55066;BME280;40964;42.114;24.220;2022-11-03T13:35:40;98074.16;;;21.65;35.13
55066;BME280;40964;42.114;24.220;2022-11-03T13:38:06;98081.19;;;21.61;35.61
55066;BME280;40964;42.114;24.220;2022-11-03T13:40:31;98085.44;;;21.62;35.93
55066;BME280;40964;42.114;24.220;2022-11-03T13:42:57;98083.84;;;21.61;35.74
55066;BME280;40964;42.114;24.220;2022-11-03T13:45:22;98086.06;;;21.53;35.67
55066;BME280;40964;42.114;24.220;2022-11-03T13:47:48;98088.25;;;21.46;35.72
55066;BME280;40964;42.114;24.220;2022-11-03T13:50:13;98087.72;;;21.44;35.92
55066;BME280;40964;42.114;24.220;2022-11-03T13:52:39;98090.41;;;21.44;35.41
55066;BME280;40964;42.114;24.220;2022-11-03T13:55:05;98094.75;;;21.35;35.70
55066;BME280;40964;42.114;24.220;2022-11-03T13:57:30;98092.38;;;21.34;36.24
55066;BME280;40964;42.114;24.220;2022-11-03T13:59:56;98093.28;;;21.14;36.08
55066;BME280;40964;42.114;24.220;2022-11-03T14:02:22;98090.25;;;21.20;36.07
55066;BME280;40964;42.114;24.220;2022-11-03T14:04:48;98092.91;;;21.25;36.25
55066;BME280;40964;42.114;24.220;2022-11-03T14:07:13;98098.28;;;21.25;36.12
55066;BME280;40964;42.114;24.220;2022-11-03T14:09:38;98091.59;;;21.23;35.99
55066;BME280;40964;42.114;24.220;2022-11-03T14:12:04;98094.34;;;21.13;38.41
55066;BME280;40964;42.114;24.220;2022-11-03T14:14:49;98100.34;;;20.94;38.69
55066;BME280;40964;42.114;24.220;2022-11-03T14:17:14;98103.09;;;20.74;39.67
55066;BME280;40964;42.114;24.220;2022-11-03T14:19:39;98106.66;;;20.59;40.36
55066;BME280;40964;42.114;24.220;2022-11-03T14:22:05;98105.06;;;20.48;40.73
55066;BME280;40964;42.114;24.220;2022-11-03T14:24:30;98106.97;;;20.32;41.04